West Case, Maryland
Current Conditions -  °F | °C
As of 12:14 PM on Wednesday 26 Nov 2014 (Local Time) from KBWI Reporting Station
Light Snow Light Snow  
Wind Chill: 28°   Ceiling: 400
Heat Index: 34°   Visibility: 1mi
Dew Point: 30°   Wind: 7mph
Humidity: 87%   Direction: 10°N
Pressure: 29.97"   Gusts: NA
Location:  39.294°N, 76.6226°W
Report Text: KBWI 261714Z 01006KT 1SM R10/6000VP6000FT -SN BR BKN004 OVC009 01/M01 A2997 RMK AO2 P0003
Loading
Personal Weather Stations






























Interactive Weather Map New forecast layout! Learn more

10-Day Weather Forecast

Advertisements
Track Severe Weather on mobile